Plainview, TX

5:53 AM CDT on October 23, 2017 (GMT -0500)
Hale County

Weather History for KPVW - February, 2013

Change the Weather History Date:

Sunday, February 17, 2013

  Actual Average Record
Temperature  
Mean Temperature 48 °F -  
Max Temperature 69 °F 54 °F 77 °F (1959)
Min Temperature 28 °F 28 °F 0 °F (1910)
Degree Days  
Heating Degree Days 16    
Moisture  
Dew Point 13 °F    
Average Humidity 34    
Maximum Humidity 69    
Minimum Humidity 6    
Precipitation  
Precipitation 0.00 in - - ()
Sea Level Pressure  
Sea Level Pressure 29.85 in    
Wind  
Wind Speed 11 mph (SW)    
Max Wind Speed 28 mph    
Max Gust Speed 36 mph    
Visibility 10 miles    
Events      
Averages and records for this station are not official NWS values.
T = Trace of Precipitation, MM = Missing Value Source: NWS Daily Summary

Daily Weather History Graph

Daily Weather History Graph

Search for Another Location

Airport or City:

Trip Planner

Search our weather history database for the weather conditions in past years. The results will help you decide how hot, cold, wet, or windy it might be!

Date:

Astronomy

Feb. 17, 2013 Rise Set
Actual Time 7:29 AM CST 6:32 PM CST
Civil Twilight 7:03 AM CST 6:58 PM CST
Nautical Twilight 6:34 AM CST 7:27 PM CST
Astronomical Twilight 6:05 AM CST 7:56 PM CST
Moon 11:44 AM CST (2/17) 1:09 AM CST (2/17)
Length of Visible Light 11h 54m
Length of Day
11h 03m
Waxing Crescent, 49% of the Moon is Illuminated
Feb 17
Waxing Crescent
Feb 17
First Quarter
Feb 25
Full
Mar 4
Last Quarter
Mar 11
New

Hourly Weather History & Observations

Time (CST) Temp. Windchill Dew Point Humidity Pressure Visibility Wind Dir Wind Speed Gust Speed Precip Events Conditions
12:15 AM 39.2 °F 33.6 °F 19.4 °F 45% 30.02 in 10.0 mi SSW 8.1 mph - N/A   Clear
12:35 AM 35.6 °F 29.2 °F 19.4 °F 52% 30.02 in 10.0 mi SSW 8.1 mph - N/A   Clear
12:55 AM 35.6 °F 30.7 °F 21.2 °F 56% 30.01 in 10.0 mi SSW 5.8 mph - N/A   Clear
1:15 AM 33.8 °F 28.6 °F 19.4 °F 56% 30.01 in 10.0 mi SSW 5.8 mph - N/A   Clear
1:35 AM 33.8 °F 27.0 °F 19.4 °F 56% 30.01 in 10.0 mi SSW 8.1 mph - N/A   Clear
1:55 AM 33.8 °F 27.7 °F 21.2 °F 60% 30.00 in 10.0 mi SW 6.9 mph - N/A   Clear
2:15 AM 33.8 °F 27.0 °F 21.2 °F 60% 30.00 in 10.0 mi SW 8.1 mph - N/A   Clear
2:35 AM 33.8 °F 27.0 °F 21.2 °F 60% 29.99 in 10.0 mi SSW 8.1 mph - N/A   Clear
2:55 AM 32.0 °F 26.4 °F 19.4 °F 60% 29.99 in 10.0 mi SW 5.8 mph - N/A   Clear
3:15 AM 30.2 °F 24.3 °F 19.4 °F 64% 29.98 in 10.0 mi WSW 5.8 mph - N/A   Clear
3:35 AM 30.2 °F 23.4 °F 19.4 °F 64% 29.97 in 10.0 mi West 6.9 mph - N/A   Clear
3:55 AM 28.4 °F 21.2 °F 17.6 °F 64% 29.96 in 10.0 mi West 6.9 mph - N/A   Clear
4:15 AM 28.4 °F 21.2 °F 17.6 °F 64% 29.96 in 10.0 mi West 6.9 mph - N/A   Clear
4:35 AM 28.4 °F 23.3 °F 17.6 °F 64% 29.96 in 10.0 mi West 4.6 mph - N/A   Clear
4:55 AM 28.4 °F 24.6 °F 17.6 °F 64% 29.95 in 10.0 mi West 3.5 mph - N/A   Clear
5:15 AM 28.4 °F 22.2 °F 17.6 °F 64% 29.95 in 10.0 mi West 5.8 mph - N/A   Clear
5:35 AM 28.4 °F 22.2 °F 17.6 °F 64% 29.95 in 10.0 mi West 5.8 mph - N/A   Clear
6:15 AM 28.4 °F 22.2 °F 17.6 °F 64% 29.94 in 10.0 mi West 5.8 mph - N/A   Clear
6:35 AM 28.4 °F 22.2 °F 17.6 °F 64% 29.94 in 10.0 mi West 5.8 mph - N/A   Clear
6:55 AM 28.4 °F 22.2 °F 17.6 °F 64% 29.94 in 10.0 mi West 5.8 mph - N/A   Clear
7:15 AM 30.2 °F 24.3 °F 19.4 °F 64% 29.93 in 10.0 mi WNW 5.8 mph - N/A   Clear
7:35 AM 28.4 °F 21.2 °F 19.4 °F 69% 29.94 in 10.0 mi WSW 6.9 mph - N/A   Clear
7:55 AM 30.2 °F 25.4 °F 21.2 °F 69% 29.94 in 10.0 mi SW 4.6 mph - N/A   Clear
8:15 AM 30.2 °F 24.3 °F 21.2 °F 69% 29.94 in 10.0 mi WSW 5.8 mph - N/A   Clear
8:35 AM 32.0 °F 27.5 °F 21.2 °F 64% 29.94 in 10.0 mi West 4.6 mph - N/A   Clear
8:55 AM 35.6 °F 29.9 °F 19.4 °F 52% 29.94 in 10.0 mi West 6.9 mph - N/A   Clear
9:15 AM 41.0 °F 34.3 °F 17.6 °F 39% 29.94 in 10.0 mi West 11.5 mph - N/A   Clear
9:35 AM 42.8 °F 35.4 °F 14.0 °F 31% 29.94 in 10.0 mi West 15.0 mph - N/A   Clear
9:55 AM 50.0 °F - 17.6 °F 28% 29.94 in 10.0 mi West 13.8 mph - N/A   Clear
10:15 AM 51.8 °F - 14.0 °F 22% 29.93 in 10.0 mi West 13.8 mph - N/A   Clear
10:35 AM 53.6 °F - 12.2 °F 19% 29.93 in 10.0 mi West 16.1 mph 20.7 mph N/A   Clear
10:55 AM 55.4 °F - 12.2 °F 18% 29.92 in 10.0 mi West 15.0 mph - N/A   Clear
11:15 AM 57.2 °F - 10.4 °F 16% 29.91 in 10.0 mi West 16.1 mph - N/A   Clear
11:35 AM 59.0 °F - 10.4 °F 15% 29.90 in 10.0 mi WSW 17.3 mph 23.0 mph N/A   Clear
11:55 AM 62.6 °F - 5.0 °F 10% 29.89 in 10.0 mi West 25.3 mph 28.8 mph N/A   Clear
12:15 PM 64.4 °F - 8.6 °F 11% 29.88 in 10.0 mi West 20.7 mph 26.5 mph N/A   Clear
12:55 PM 69.8 °F - 5.0 °F 8% 29.84 in 10.0 mi WSW 25.3 mph 35.7 mph N/A   Clear
1:15 PM 69.8 °F - 1.4 °F 7% 29.83 in 10.0 mi WSW 27.6 mph 35.7 mph N/A   Clear
1:35 PM 69.8 °F - 1.4 °F 7% 29.82 in 10.0 mi SW 26.5 mph 31.1 mph N/A   Clear
1:55 PM 69.8 °F - 1.4 °F 7% 29.80 in 10.0 mi SW 26.5 mph 33.4 mph N/A   Clear
2:15 PM 69.8 °F - -0.4 °F 6% 29.79 in 10.0 mi WSW 26.5 mph 33.4 mph N/A   Clear
2:35 PM 69.8 °F - -0.4 °F 6% 29.79 in 10.0 mi SW 20.7 mph 34.5 mph N/A   Clear
2:55 PM 69.8 °F - 1.4 °F 7% 29.77 in 10.0 mi SW 20.7 mph 34.5 mph N/A   Clear
3:15 PM 69.8 °F - 1.4 °F 7% 29.77 in 10.0 mi SW 19.6 mph 28.8 mph N/A   Clear
3:35 PM 69.8 °F - 1.4 °F 7% 29.76 in 10.0 mi SW 19.6 mph 31.1 mph N/A   Clear
3:55 PM 69.8 °F - -0.4 °F 6% 29.76 in 10.0 mi SW 21.9 mph 31.1 mph N/A   Clear
4:15 PM 69.8 °F - -0.4 °F 6% 29.75 in 10.0 mi SW 21.9 mph 32.2 mph N/A   Clear
4:35 PM 69.8 °F - -0.4 °F 6% 29.75 in 10.0 mi SSW 23.0 mph 28.8 mph N/A   Clear
4:55 PM 69.8 °F - -0.4 °F 6% 29.74 in 10.0 mi SW 20.7 mph 27.6 mph N/A   Clear
5:15 PM 69.8 °F - -0.4 °F 6% 29.73 in 10.0 mi SSW 20.7 mph 28.8 mph N/A   Clear
5:35 PM 68.0 °F - -0.4 °F 7% 29.73 in 10.0 mi SSW 17.3 mph 25.3 mph N/A   Clear
5:55 PM 64.4 °F - -0.4 °F 7% 29.72 in 10.0 mi SSW 16.1 mph - N/A   Clear
6:15 PM 62.6 °F - 1.4 °F 9% 29.72 in 10.0 mi SSW 12.7 mph - N/A   Clear
6:35 PM 59.0 °F - 3.2 °F 11% 29.72 in 10.0 mi SSW 13.8 mph - N/A   Clear
6:55 PM 55.4 °F - 5.0 °F 13% 29.72 in 10.0 mi SSW 13.8 mph - N/A   Clear
7:15 PM 55.4 °F - 8.6 °F 15% 29.72 in 10.0 mi SSW 12.7 mph - N/A   Clear
7:35 PM 55.4 °F - 8.6 °F 15% 29.72 in 10.0 mi SSW 12.7 mph - N/A   Clear
7:55 PM 53.6 °F - 10.4 °F 18% 29.72 in 10.0 mi SSW 11.5 mph - N/A   Clear
8:15 PM 51.8 °F - 10.4 °F 19% 29.71 in 10.0 mi SSW 12.7 mph - N/A   Clear
8:35 PM 50.0 °F - 12.2 °F 22% 29.71 in 10.0 mi South 9.2 mph - N/A   Clear
8:55 PM 46.4 °F 41.9 °F 14.0 °F 27% 29.72 in 10.0 mi SSW 9.2 mph - N/A   Clear
9:15 PM 48.2 °F - 15.8 °F 27% 29.71 in 10.0 mi South 11.5 mph - N/A   Clear
9:35 PM 50.0 °F - 17.6 °F 28% 29.71 in 10.0 mi SSW 12.7 mph - N/A   Clear
9:55 PM 46.4 °F 41.1 °F 17.6 °F 32% 29.71 in 10.0 mi South 11.5 mph - N/A   Clear
10:15 PM 44.6 °F 39.7 °F 17.6 °F 34% 29.71 in 10.0 mi SSW 9.2 mph - N/A   Clear
10:35 PM 44.6 °F 38.4 °F 19.4 °F 37% 29.71 in 10.0 mi SSW 12.7 mph - N/A   Clear
10:55 PM 46.4 °F 39.8 °F 19.4 °F 34% 29.71 in 10.0 mi SSW 16.1 mph - N/A   Clear
11:15 PM 50.0 °F - 21.2 °F 32% 29.71 in 10.0 mi SSW 17.3 mph - N/A   Clear
11:35 PM 46.4 °F 40.4 °F 21.2 °F 37% 29.70 in 10.0 mi SSW 13.8 mph - N/A   Clear
11:55 PM 42.8 °F 37.0 °F 19.4 °F 39% 29.70 in 10.0 mi SSW 10.4 mph - N/A   Clear